Time;durP1;ratioP1;P1;durP2;ratioP2;P2;SDS_P1;SDS_P2;PMS_P1;PMS_P2;Temp;Humidity;BMP_temperature;BMP_pressure;BME280_temperature;BME280_humidity;BME280_pressure;Samples;Min_cycle;Max_cycle;Signal;HPM_P1;HPM_P2
2021/08/18 00:01:07;;;;;;;3.43;3.11;;;;;;;21.80;69.14;100608.20;;;;-64
2021/08/18 00:04:06;;;;;;;3.90;3.30;;;;;;;21.78;69.20;100604.77;;;;-64
2021/08/18 00:07:07;;;;;;;3.52;3.13;;;;;;;21.79;69.21;100607.79;;;;-64
2021/08/18 00:10:06;;;;;;;4.24;3.23;;;;;;;21.79;69.19;100608.61;;;;-51
2021/08/18 00:13:06;;;;;;;4.03;3.55;;;;;;;21.78;69.15;100609.59;;;;-53
2021/08/18 00:16:07;;;;;;;3.47;3.17;;;;;;;21.78;69.22;100607.80;;;;-60
2021/08/18 00:19:06;;;;;;;3.73;3.33;;;;;;;21.76;69.21;100605.27;;;;-60
2021/08/18 00:22:07;;;;;;;3.53;3.11;;;;;;;21.77;69.17;100604.31;;;;-60
2021/08/18 00:25:06;;;;;;;3.97;3.27;;;;;;;21.76;69.15;100605.59;;;;-60
2021/08/18 00:28:06;;;;;;;3.83;3.47;;;;;;;21.76;69.21;100597.36;;;;-60
2021/08/18 00:31:07;;;;;;;4.37;3.40;;;;;;;21.76;69.21;100596.38;;;;-60
2021/08/18 00:34:06;;;;;;;3.87;3.47;;;;;;;21.75;69.21;100592.55;;;;-60
2021/08/18 00:37:07;;;;;;;3.42;3.12;;;;;;;21.76;69.19;100595.57;;;;-52
2021/08/18 00:40:07;;;;;;;4.75;3.33;;;;;;;21.75;69.20;100595.73;;;;-51
2021/08/18 00:43:06;;;;;;;3.85;3.37;;;;;;;21.75;69.24;100595.39;;;;-60
2021/08/18 00:46:07;;;;;;;3.66;3.27;;;;;;;21.75;69.19;100596.56;;;;-59
2021/08/18 00:49:06;;;;;;;3.64;3.31;;;;;;;21.74;69.20;100596.70;;;;-60
2021/08/18 00:52:07;;;;;;;3.69;3.33;;;;;;;21.74;69.24;100590.18;;;;-61
2021/08/18 00:55:07;;;;;;;3.68;3.34;;;;;;;21.73;69.28;100589.95;;;;-60
2021/08/18 00:58:06;;;;;;;3.88;3.08;;;;;;;21.72;69.28;100586.02;;;;-60
2021/08/18 01:01:07;;;;;;;3.91;3.49;;;;;;;21.73;69.24;100586.42;;;;-52
2021/08/18 01:04:06;;;;;;;3.40;3.02;;;;;;;21.72;69.31;100591.65;;;;-52
2021/08/18 01:07:06;;;;;;;3.25;2.95;;;;;;;21.72;69.27;100588.96;;;;-52
2021/08/18 01:10:07;;;;;;;3.63;3.23;;;;;;;21.71;69.36;100583.51;;;;-52
2021/08/18 01:13:06;;;;;;;3.73;3.25;;;;;;;21.71;69.29;100583.43;;;;-61
2021/08/18 01:16:06;;;;;;;3.93;3.23;;;;;;;21.71;69.32;100582.86;;;;-63
2021/08/18 01:19:07;;;;;;;3.57;3.25;;;;;;;21.70;69.28;100587.89;;;;-63
2021/08/18 01:22:06;;;;;;;3.63;3.29;;;;;;;21.70;69.31;100589.77;;;;-63
2021/08/18 01:25:06;;;;;;;3.51;3.20;;;;;;;21.70;69.28;100594.91;;;;-63
2021/08/18 01:28:06;;;;;;;3.45;2.99;;;;;;;21.69;69.34;100592.80;;;;-65
2021/08/18 01:31:06;;;;;;;3.59;3.27;;;;;;;21.69;69.37;100591.34;;;;-64
2021/08/18 01:34:07;;;;;;;3.49;3.19;;;;;;;21.69;69.37;100592.89;;;;-53
2021/08/18 01:37:06;;;;;;;3.36;3.02;;;;;;;21.69;69.36;100593.95;;;;-52
2021/08/18 01:40:07;;;;;;;4.02;3.19;;;;;;;21.68;69.34;100592.95;;;;-52
2021/08/18 01:43:06;;;;;;;3.44;3.14;;;;;;;21.68;69.35;100589.61;;;;-51
2021/08/18 01:46:08;;;;;;;3.64;3.21;;;;;;;21.68;69.34;100588.47;;;;-53
2021/08/18 01:49:07;;;;;;;3.89;3.34;;;;;;;21.68;69.36;100591.73;;;;-52
2021/08/18 01:52:06;;;;;;;3.33;3.01;;;;;;;21.67;69.33;100590.60;;;;-53
2021/08/18 01:55:06;;;;;;;3.29;2.99;;;;;;;21.67;69.42;100590.28;;;;-52
2021/08/18 01:58:06;;;;;;;3.63;3.31;;;;;;;21.67;69.40;100591.02;;;;-63
2021/08/18 02:01:06;;;;;;;3.31;3.01;;;;;;;21.66;69.40;100585.86;;;;-51
2021/08/18 02:04:07;;;;;;;3.32;3.02;;;;;;;21.66;69.42;100583.25;;;;-53
2021/08/18 02:07:06;;;;;;;3.46;3.15;;;;;;;21.66;69.41;100584.80;;;;-52
2021/08/18 02:10:07;;;;;;;4.05;3.24;;;;;;;21.65;69.42;100581.63;;;;-52
2021/08/18 02:13:06;;;;;;;3.29;2.99;;;;;;;21.65;69.36;100584.08;;;;-64
2021/08/18 02:16:06;;;;;;;3.47;3.17;;;;;;;21.65;69.44;100589.22;;;;-65
2021/08/18 02:19:07;;;;;;;4.13;3.25;;;;;;;21.66;69.38;100590.59;;;;-53
2021/08/18 02:22:06;;;;;;;4.28;3.27;;;;;;;21.64;69.43;100586.92;;;;-51
2021/08/18 02:25:06;;;;;;;3.31;3.00;;;;;;;21.65;69.42;100588.49;;;;-51
2021/08/18 02:28:07;;;;;;;3.29;2.99;;;;;;;21.64;69.44;100589.06;;;;-52
2021/08/18 02:31:07;;;;;;;4.16;3.32;;;;;;;21.63;69.42;100585.72;;;;-52
2021/08/18 02:34:09;;;;;;;3.21;2.91;;;;;;;21.64;69.45;100586.36;;;;-51
2021/08/18 02:37:06;;;;;;;3.29;2.95;;;;;;;21.64;69.47;100587.91;;;;-51
2021/08/18 02:40:06;;;;;;;3.54;3.00;;;;;;;21.62;69.44;100584.02;;;;-60
2021/08/18 02:43:07;;;;;;;3.35;3.03;;;;;;;21.63;69.38;100582.05;;;;-60
2021/08/18 02:46:06;;;;;;;3.48;3.18;;;;;;;21.63;69.46;100587.34;;;;-52
2021/08/18 02:49:06;;;;;;;3.23;2.93;;;;;;;21.63;69.45;100582.63;;;;-52
2021/08/18 02:52:06;;;;;;;3.59;3.14;;;;;;;21.61;69.43;100583.02;;;;-53
2021/08/18 02:55:06;;;;;;;3.36;3.06;;;;;;;21.61;69.50;100582.45;;;;-53
2021/08/18 02:58:07;;;;;;;3.44;3.14;;;;;;;21.62;69.45;100587.25;;;;-64
2021/08/18 03:01:06;;;;;;;3.81;2.99;;;;;;;21.61;69.51;100588.50;;;;-63
2021/08/18 03:04:06;;;;;;;3.26;2.94;;;;;;;21.60;69.48;100587.16;;;;-63
2021/08/18 03:07:07;;;;;;;3.21;2.91;;;;;;;21.60;69.51;100588.14;;;;-64
2021/08/18 03:10:06;;;;;;;3.38;3.08;;;;;;;21.59;69.53;100586.36;;;;-65
2021/08/18 03:13:07;;;;;;;3.31;2.89;;;;;;;21.60;69.50;100587.44;;;;-52
2021/08/18 03:16:06;;;;;;;3.63;3.25;;;;;;;21.59;69.50;100586.61;;;;-60
2021/08/18 03:19:07;;;;;;;3.71;2.89;;;;;;;21.59;69.56;100589.63;;;;-60
2021/08/18 03:22:07;;;;;;;3.20;2.90;;;;;;;21.58;69.54;100588.64;;;;-53
2021/08/18 03:25:07;;;;;;;3.33;3.03;;;;;;;21.58;69.52;100588.66;;;;-51
2021/08/18 03:28:06;;;;;;;3.25;2.95;;;;;;;21.59;69.54;100585.80;;;;-53
2021/08/18 03:31:06;;;;;;;3.38;3.08;;;;;;;21.58;69.52;100584.50;;;;-51
2021/08/18 03:34:06;;;;;;;3.13;2.81;;;;;;;21.57;69.54;100580.00;;;;-51
2021/08/18 03:37:07;;;;;;;3.50;3.11;;;;;;;21.57;69.53;100576.91;;;;-51
2021/08/18 03:40:06;;;;;;;3.48;3.18;;;;;;;21.58;69.46;100580.08;;;;-60
2021/08/18 03:43:07;;;;;;;3.47;3.17;;;;;;;21.57;69.53;100582.86;;;;-61
2021/08/18 03:46:07;;;;;;;3.25;2.95;;;;;;;21.56;69.57;100577.41;;;;-59
2021/08/18 03:49:06;;;;;;;3.31;3.01;;;;;;;21.57;69.51;100576.18;;;;-52
2021/08/18 03:52:07;;;;;;;3.42;3.12;;;;;;;21.56;69.53;100576.89;;;;-53
2021/08/18 03:55:06;;;;;;;3.12;2.82;;;;;;;21.56;69.53;100577.16;;;;-52
2021/08/18 03:58:06;;;;;;;3.39;3.09;;;;;;;21.56;69.62;100578.52;;;;-51
2021/08/18 04:01:07;;;;;;;3.21;2.91;;;;;;;21.56;69.65;100581.78;;;;-51
2021/08/18 04:04:06;;;;;;;3.33;3.03;;;;;;;21.56;69.62;100582.92;;;;-53
2021/08/18 04:07:06;;;;;;;3.24;2.94;;;;;;;21.56;69.63;100586.35;;;;-51
2021/08/18 04:10:06;;;;;;;3.41;3.01;;;;;;;21.56;69.56;100583.02;;;;-64
2021/08/18 04:13:06;;;;;;;3.26;2.96;;;;;;;21.55;69.59;100582.78;;;;-64
2021/08/18 04:16:07;;;;;;;2.87;2.63;;;;;;;21.55;69.56;100581.80;;;;-65
2021/08/18 04:19:07;;;;;;;3.13;2.83;;;;;;;21.54;69.58;100587.52;;;;-61
2021/08/18 04:22:06;;;;;;;3.17;2.87;;;;;;;21.55;69.60;100587.09;;;;-64
2021/08/18 04:25:06;;;;;;;3.23;2.84;;;;;;;21.54;69.63;100589.78;;;;-63
2021/08/18 04:28:06;;;;;;;3.15;2.85;;;;;;;21.54;69.63;100592.87;;;;-63
2021/08/18 04:31:06;;;;;;;8.68;3.38;;;;;;;21.54;69.29;100595.11;;;;-61
2021/08/18 04:34:06;;;;;;;5.56;3.01;;;;;;;21.54;69.56;100598.91;;;;-53
2021/08/18 04:37:08;;;;;;;4.08;3.29;;;;;;;21.54;69.58;100594.43;;;;-52
2021/08/18 04:40:07;;;;;;;3.49;3.07;;;;;;;21.54;69.58;100592.50;;;;-52
2021/08/18 04:43:06;;;;;;;3.42;3.00;;;;;;;21.53;69.59;100594.68;;;;-52
2021/08/18 04:46:06;;;;;;;4.13;3.22;;;;;;;21.53;69.56;100590.45;;;;-52
2021/08/18 04:49:06;;;;;;;3.23;2.90;;;;;;;21.53;69.63;100593.70;;;;-53
2021/08/18 04:52:06;;;;;;;4.58;3.18;;;;;;;21.53;69.61;100593.95;;;;-64
2021/08/18 04:55:07;;;;;;;3.19;2.86;;;;;;;21.53;69.63;100589.45;;;;-64
2021/08/18 04:58:06;;;;;;;4.77;3.22;;;;;;;21.53;69.65;100597.05;;;;-63
2021/08/18 05:01:06;;;;;;;3.52;3.03;;;;;;;21.52;69.65;100589.78;;;;-63
2021/08/18 05:04:07;;;;;;;3.21;2.91;;;;;;;21.52;69.66;100599.02;;;;-64
2021/08/18 05:07:06;;;;;;;3.20;2.90;;;;;;;21.52;69.63;100600.23;;;;-61
2021/08/18 05:10:07;;;;;;;3.35;3.04;;;;;;;21.52;69.59;100596.41;;;;-61
2021/08/18 05:13:06;;;;;;;3.65;2.93;;;;;;;21.52;69.70;100597.20;;;;-52
2021/08/18 05:16:06;;;;;;;3.27;2.95;;;;;;;21.51;69.62;100593.13;;;;-60
2021/08/18 05:19:07;;;;;;;3.20;2.72;;;;;;;21.51;69.64;100597.13;;;;-60
2021/08/18 05:22:06;;;;;;;2.96;2.65;;;;;;;21.51;69.68;100595.34;;;;-60
2021/08/18 05:25:07;;;;;;;9.26;5.61;;;;;;;21.51;68.75;100598.68;;;;-61
2021/08/18 05:28:08;;;;;;;9.02;6.87;;;;;;;21.42;68.01;100599.17;;;;-53
2021/08/18 05:31:06;;;;;;;10.29;7.08;;;;;;;21.26;68.24;100599.77;;;;-52
2021/08/18 05:34:06;;;;;;;11.49;7.54;;;;;;;21.18;68.05;100604.00;;;;-53
2021/08/18 05:37:06;;;;;;;12.55;7.39;;;;;;;21.10;68.20;100605.53;;;;-61
2021/08/18 05:40:06;;;;;;;11.79;7.13;;;;;;;21.00;68.41;100609.20;;;;-61
2021/08/18 05:43:06;;;;;;;11.21;7.49;;;;;;;20.92;68.42;100606.64;;;;-52
2021/08/18 05:46:06;;;;;;;10.76;7.59;;;;;;;20.84;68.66;100610.21;;;;-64
2021/08/18 05:49:06;;;;;;;10.33;7.14;;;;;;;20.77;68.89;100612.31;;;;-64
2021/08/18 05:52:06;;;;;;;12.14;7.37;;;;;;;20.74;68.91;100612.45;;;;-63
2021/08/18 05:55:06;;;;;;;9.38;6.90;;;;;;;20.68;69.29;100609.98;;;;-61
2021/08/18 05:58:07;;;;;;;11.75;7.28;;;;;;;20.63;69.70;100609.56;;;;-60
2021/08/18 06:01:06;;;;;;;11.37;7.29;;;;;;;20.60;69.60;100611.50;;;;-51
2021/08/18 06:04:06;;;;;;;9.88;6.83;;;;;;;20.52;70.01;100614.03;;;;-52
2021/08/18 06:07:06;;;;;;;9.75;6.80;;;;;;;20.53;69.71;100613.31;;;;-51
2021/08/18 06:10:06;;;;;;;10.69;6.71;;;;;;;20.49;69.74;100617.20;;;;-53
2021/08/18 06:13:06;;;;;;;9.26;6.41;;;;;;;20.51;69.94;100615.84;;;;-53
2021/08/18 06:16:06;;;;;;;10.78;6.36;;;;;;;20.48;70.12;100618.52;;;;-53
2021/08/18 06:19:06;;;;;;;11.37;6.62;;;;;;;20.46;69.95;100614.00;;;;-52
2021/08/18 06:22:06;;;;;;;9.78;6.76;;;;;;;20.42;70.34;100617.26;;;;-53
2021/08/18 06:25:06;;;;;;;8.65;6.36;;;;;;;20.41;70.28;100618.62;;;;-63
2021/08/18 06:28:06;;;;;;;9.16;6.02;;;;;;;20.35;70.71;100619.81;;;;-63
2021/08/18 06:31:06;;;;;;;10.09;5.92;;;;;;;20.38;70.60;100621.28;;;;-63
2021/08/18 06:34:06;;;;;;;9.19;5.71;;;;;;;20.42;70.54;100622.63;;;;-60
2021/08/18 06:37:06;;;;;;;10.54;5.69;;;;;;;20.47;70.50;100616.55;;;;-60
2021/08/18 06:40:06;;;;;;;8.25;5.47;;;;;;;20.52;70.37;100619.48;;;;-60
2021/08/18 06:43:07;;;;;;;7.94;5.39;;;;;;;20.55;70.30;100619.19;;;;-52
2021/08/18 06:46:06;;;;;;;6.26;5.32;;;;;;;20.59;70.29;100623.64;;;;-52
2021/08/18 06:49:06;;;;;;;6.64;5.49;;;;;;;20.61;70.19;100617.05;;;;-51
2021/08/18 06:52:06;;;;;;;6.83;4.97;;;;;;;20.66;70.25;100620.89;;;;-63
2021/08/18 06:55:06;;;;;;;6.40;5.03;;;;;;;20.67;70.16;100620.09;;;;-64
2021/08/18 06:58:07;;;;;;;6.81;4.94;;;;;;;20.69;70.12;100621.48;;;;-52
2021/08/18 07:01:06;;;;;;;6.87;4.97;;;;;;;20.71;70.19;100618.97;;;;-53
2021/08/18 07:04:07;;;;;;;7.05;5.45;;;;;;;20.73;70.12;100622.86;;;;-52
2021/08/18 07:07:06;;;;;;;6.56;4.82;;;;;;;20.74;70.12;100621.23;;;;-52
2021/08/18 07:10:06;;;;;;;5.67;4.85;;;;;;;20.75;70.13;100621.26;;;;-52
2021/08/18 07:13:06;;;;;;;6.46;4.82;;;;;;;20.77;70.11;100616.84;;;;-52
2021/08/18 07:16:08;;;;;;;5.50;4.63;;;;;;;20.78;70.15;100620.69;;;;-53
2021/08/18 07:19:06;;;;;;;6.30;4.75;;;;;;;20.79;70.12;100619.53;;;;-52
2021/08/18 07:22:07;;;;;;;9.51;4.74;;;;;;;20.82;70.20;100620.22;;;;-60
2021/08/18 07:25:06;;;;;;;5.45;4.84;;;;;;;20.85;70.22;100621.44;;;;-59
2021/08/18 07:28:06;;;;;;;8.74;4.56;;;;;;;20.88;70.30;100620.98;;;;-51
2021/08/18 07:31:06;;;;;;;5.71;4.53;;;;;;;20.91;70.44;100623.25;;;;-50
2021/08/18 07:34:06;;;;;;;5.05;4.37;;;;;;;20.93;70.52;100617.38;;;;-49
2021/08/18 07:37:06;;;;;;;5.78;4.75;;;;;;;20.97;70.19;100619.03;;;;-64
2021/08/18 07:40:06;;;;;;;4.99;4.49;;;;;;;20.97;70.32;100624.16;;;;-64
2021/08/18 07:43:06;;;;;;;6.44;4.59;;;;;;;20.99;70.34;100624.34;;;;-55
2021/08/18 07:46:06;;;;;;;5.23;4.41;;;;;;;20.99;70.33;100623.27;;;;-66
2021/08/18 07:49:06;;;;;;;5.71;4.46;;;;;;;21.00;70.36;100627.77;;;;-65
2021/08/18 07:52:06;;;;;;;4.62;4.17;;;;;;;21.01;70.31;100628.17;;;;-63
2021/08/18 07:55:06;;;;;;;5.28;4.49;;;;;;;21.02;70.23;100627.94;;;;-57
2021/08/18 07:58:06;;;;;;;6.25;4.29;;;;;;;21.05;70.32;100629.16;;;;-57
2021/08/18 08:01:07;;;;;;;7.07;4.38;;;;;;;21.07;70.42;100629.50;;;;-61
2021/08/18 08:04:06;;;;;;;5.17;4.29;;;;;;;21.08;70.52;100629.16;;;;-59
2021/08/18 08:07:06;;;;;;;4.70;4.24;;;;;;;21.11;70.59;100631.62;;;;-60
2021/08/18 08:10:07;;;;;;;4.72;4.15;;;;;;;21.12;70.69;100633.08;;;;-57
2021/08/18 08:13:09;;;;;;;4.89;4.30;;;;;;;21.14;70.92;100630.06;;;;-63
2021/08/18 08:16:06;;;;;;;4.51;4.01;;;;;;;21.15;70.79;100626.09;;;;-62
2021/08/18 08:19:07;;;;;;;4.68;4.10;;;;;;;21.17;70.79;100634.56;;;;-53
2021/08/18 08:22:07;;;;;;;4.19;3.79;;;;;;;21.19;70.77;100630.50;;;;-59
2021/08/18 08:25:06;;;;;;;4.81;4.31;;;;;;;21.21;70.71;100631.65;;;;-54
2021/08/18 08:28:06;;;;;;;4.66;4.11;;;;;;;21.21;70.76;100626.84;;;;-51
2021/08/18 08:31:06;;;;;;;4.40;3.97;;;;;;;21.24;70.75;100632.21;;;;-60
2021/08/18 08:34:06;;;;;;;4.69;4.09;;;;;;;21.24;70.67;100629.11;;;;-51
2021/08/18 08:37:06;;;;;;;4.50;4.05;;;;;;;21.26;70.68;100629.12;;;;-55
2021/08/18 08:40:06;;;;;;;4.23;3.76;;;;;;;21.28;70.65;100634.02;;;;-57
2021/08/18 08:43:06;;;;;;;5.32;3.94;;;;;;;21.30;70.73;100633.04;;;;-52
2021/08/18 08:46:06;;;;;;;6.95;3.95;;;;;;;21.31;70.75;100629.39;;;;-51
2021/08/18 08:49:06;;;;;;;7.16;3.97;;;;;;;21.33;70.82;100628.63;;;;-51
2021/08/18 08:52:06;;;;;;;8.13;3.93;;;;;;;21.34;70.57;100631.91;;;;-52
2021/08/18 08:55:06;;;;;;;6.18;3.53;;;;;;;21.35;70.69;100627.59;;;;-53
2021/08/18 08:58:06;;;;;;;7.48;3.87;;;;;;;21.37;70.60;100627.50;;;;-60
2021/08/18 09:01:06;;;;;;;7.56;3.78;;;;;;;21.38;70.62;100631.83;;;;-52
2021/08/18 09:04:06;;;;;;;6.45;3.82;;;;;;;21.39;70.60;100639.64;;;;-47
2021/08/18 09:07:06;;;;;;;5.41;3.57;;;;;;;21.40;70.57;100636.88;;;;-53
2021/08/18 09:10:06;;;;;;;6.22;3.30;;;;;;;21.41;70.56;100637.61;;;;-61
2021/08/18 09:13:06;;;;;;;6.29;3.58;;;;;;;21.43;70.49;100632.42;;;;-50
2021/08/18 09:16:06;;;;;;;4.83;3.75;;;;;;;21.44;70.56;100637.17;;;;-52
2021/08/18 09:19:06;;;;;;;4.37;3.60;;;;;;;21.44;70.33;100635.30;;;;-54
2021/08/18 09:22:07;;;;;;;7.83;3.87;;;;;;;21.44;70.58;100638.39;;;;-52
2021/08/18 09:25:06;;;;;;;8.67;3.65;;;;;;;21.45;70.40;100635.45;;;;-52
2021/08/18 09:28:06;;;;;;;4.87;3.53;;;;;;;21.45;70.38;100631.53;;;;-56
2021/08/18 09:31:06;;;;;;;4.72;3.45;;;;;;;21.45;70.31;100629.50;;;;-54
2021/08/18 09:34:06;;;;;;;7.93;3.55;;;;;;;21.46;70.26;100629.52;;;;-58
2021/08/18 09:37:06;;;;;;;7.37;3.34;;;;;;;21.48;70.31;100625.33;;;;-49
2021/08/18 09:40:06;;;;;;;7.19;3.39;;;;;;;21.50;70.41;100622.88;;;;-52
2021/08/18 09:43:06;;;;;;;5.91;3.23;;;;;;;21.51;70.35;100621.59;;;;-48
2021/08/18 09:46:06;;;;;;;11.88;3.55;;;;;;;21.53;70.51;100622.24;;;;-50
2021/08/18 09:49:06;;;;;;;7.07;3.14;;;;;;;21.55;70.55;100616.53;;;;-53
2021/08/18 09:52:06;;;;;;;6.24;3.31;;;;;;;21.56;70.50;100620.63;;;;-59
2021/08/18 09:55:06;;;;;;;5.05;3.41;;;;;;;21.58;70.49;100614.57;;;;-56
2021/08/18 09:58:06;;;;;;;8.03;3.12;;;;;;;21.58;70.49;100611.66;;;;-52
2021/08/18 10:01:08;;;;;;;6.47;3.49;;;;;;;21.59;70.47;100611.90;;;;-56
2021/08/18 10:04:06;;;;;;;8.88;3.33;;;;;;;21.60;70.37;100616.04;;;;-53
2021/08/18 10:07:06;;;;;;;6.01;3.41;;;;;;;21.60;70.44;100617.02;;;;-56
2021/08/18 10:10:06;;;;;;;5.61;3.01;;;;;;;21.60;70.50;100621.09;;;;-52
2021/08/18 10:13:06;;;;;;;3.80;3.15;;;;;;;21.61;70.44;100615.65;;;;-61
2021/08/18 10:16:09;;;;;;;7.04;3.10;;;;;;;21.62;70.34;100616.94;;;;-54
2021/08/18 10:19:08;;;;;;;6.69;3.17;;;;;;;21.63;70.33;100616.78;;;;-55
2021/08/18 10:22:06;;;;;;;7.99;3.46;;;;;;;21.62;70.09;100617.92;;;;-58
2021/08/18 10:25:06;;;;;;;339.62;311.85;;;;;;;21.62;70.33;100617.99;;;;-58
2021/08/18 10:28:06;;;;;;;3.31;2.85;;;;;;;21.62;70.22;100617.10;;;;-58
2021/08/18 10:31:06;;;;;;;4.21;3.01;;;;;;;21.62;70.16;100613.84;;;;-58
2021/08/18 10:34:06;;;;;;;4.85;3.04;;;;;;;21.62;70.14;100611.30;;;;-52
2021/08/18 10:37:06;;;;;;;6.80;3.07;;;;;;;21.62;70.07;100612.38;;;;-52
2021/08/18 10:40:06;;;;;;;6.88;3.19;;;;;;;21.61;70.04;100613.36;;;;-52
2021/08/18 10:43:06;;;;;;;5.25;2.66;;;;;;;21.61;70.05;100609.38;;;;-51
2021/08/18 10:46:06;;;;;;;7.87;2.91;;;;;;;21.62;69.82;100610.49;;;;-50
2021/08/18 10:49:06;;;;;;;6.55;2.79;;;;;;;21.60;70.00;100609.52;;;;-50
2021/08/18 10:52:06;;;;;;;9.20;3.18;;;;;;;21.61;69.96;100603.09;;;;-52
2021/08/18 10:55:06;;;;;;;5.93;2.87;;;;;;;21.62;70.00;100602.93;;;;-57
2021/08/18 10:58:07;;;;;;;6.02;3.07;;;;;;;21.63;70.04;100595.17;;;;-52
2021/08/18 11:01:06;;;;;;;7.32;2.89;;;;;;;21.64;70.08;100594.51;;;;-53
2021/08/18 11:04:06;;;;;;;5.32;3.00;;;;;;;21.65;70.00;100597.05;;;;-51
2021/08/18 11:07:06;;;;;;;6.57;2.92;;;;;;;21.65;69.97;100594.20;;;;-51
2021/08/18 11:10:06;;;;;;;4.85;2.91;;;;;;;21.65;70.01;100593.55;;;;-51
2021/08/18 11:13:06;;;;;;;3.76;2.73;;;;;;;21.65;69.96;100593.95;;;;-51
2021/08/18 11:16:06;;;;;;;7.11;2.80;;;;;;;21.64;69.94;100592.55;;;;-50
2021/08/18 11:19:06;;;;;;;3.89;2.82;;;;;;;21.64;69.92;100597.69;;;;-50
2021/08/18 11:22:06;;;;;;;6.15;2.89;;;;;;;21.63;69.96;100599.59;;;;-51
2021/08/18 11:25:06;;;;;;;3.20;2.68;;;;;;;21.62;69.99;100599.73;;;;-50
2021/08/18 11:28:06;;;;;;;5.14;2.63;;;;;;;21.62;69.91;100600.48;;;;-50
2021/08/18 11:31:06;;;;;;;6.61;3.00;;;;;;;21.61;69.87;100598.35;;;;-50
2021/08/18 11:34:06;;;;;;;3.57;2.85;;;;;;;21.61;69.84;100594.36;;;;-51
2021/08/18 11:37:07;;;;;;;3.69;2.76;;;;;;;21.61;69.89;100596.08;;;;-58
2021/08/18 11:40:06;;;;;;;3.78;2.76;;;;;;;21.60;69.91;100594.43;;;;-59
2021/08/18 11:43:06;;;;;;;5.26;2.58;;;;;;;21.60;69.84;100591.98;;;;-48
2021/08/18 11:46:06;;;;;;;5.21;2.65;;;;;;;21.59;69.87;100588.48;;;;-48
2021/08/18 11:49:06;;;;;;;3.45;2.50;;;;;;;21.59;69.85;100592.72;;;;-48
2021/08/18 11:52:06;;;;;;;4.03;2.67;;;;;;;21.59;69.86;100588.48;;;;-51
2021/08/18 11:55:06;;;;;;;3.31;2.61;;;;;;;21.59;69.85;100594.12;;;;-51
2021/08/18 11:58:08;;;;;;;3.73;2.52;;;;;;;21.58;69.85;100588.33;;;;-58
2021/08/18 12:01:06;;;;;;;4.71;2.93;;;;;;;21.58;69.83;100584.02;;;;-58
2021/08/18 12:04:06;;;;;;;4.14;2.62;;;;;;;21.58;69.85;100585.72;;;;-59
2021/08/18 12:07:08;;;;;;;3.38;2.47;;;;;;;21.58;69.79;100585.89;;;;-59
2021/08/18 12:10:06;;;;;;;3.59;2.63;;;;;;;21.59;69.84;100584.00;;;;-51
2021/08/18 12:13:06;;;;;;;3.19;2.52;;;;;;;21.58;69.82;100582.55;;;;-51
2021/08/18 12:16:06;;;;;;;3.51;2.49;;;;;;;21.59;69.82;100579.27;;;;-56
2021/08/18 12:19:06;;;;;;;2.69;2.37;;;;;;;21.61;69.79;100578.46;;;;-55
2021/08/18 12:22:06;;;;;;;4.32;2.57;;;;;;;21.63;69.81;100573.66;;;;-54
2021/08/18 12:25:06;;;;;;;3.07;2.51;;;;;;;21.64;69.84;100576.81;;;;-52
2021/08/18 12:28:06;;;;;;;2.51;2.27;;;;;;;21.65;69.88;100571.69;;;;-50
2021/08/18 12:31:07;;;;;;;3.17;2.37;;;;;;;21.65;69.89;100573.55;;;;-50
2021/08/18 12:34:07;;;;;;;3.07;2.41;;;;;;;21.66;69.84;100568.64;;;;-53
2021/08/18 12:37:06;;;;;;;2.67;2.20;;;;;;;21.67;69.93;100568.02;;;;-50
2021/08/18 12:40:06;;;;;;;3.33;2.15;;;;;;;21.68;69.94;100567.42;;;;-47
2021/08/18 12:43:10;;;;;;;3.37;2.55;;;;;;;21.69;69.92;100564.27;;;;-48
2021/08/18 12:46:10;;;;;;;3.33;2.56;;;;;;;21.70;69.92;100564.89;;;;-51
2021/08/18 12:49:06;;;;;;;3.35;2.41;;;;;;;21.71;69.89;100558.47;;;;-54
2021/08/18 12:52:06;;;;;;;4.66;2.52;;;;;;;21.73;69.88;100557.38;;;;-52
2021/08/18 12:55:06;;;;;;;4.31;2.55;;;;;;;21.74;69.89;100556.17;;;;-53
2021/08/18 12:58:06;;;;;;;2.91;2.52;;;;;;;21.75;69.96;100552.92;;;;-52
2021/08/18 13:01:06;;;;;;;4.82;2.47;;;;;;;21.76;70.09;100550.62;;;;-56
2021/08/18 13:04:06;;;;;;;9.17;2.52;;;;;;;21.77;70.02;100547.85;;;;-53
2021/08/18 13:07:06;;;;;;;10.03;2.68;;;;;;;21.79;70.03;100551.84;;;;-52
2021/08/18 13:10:06;;;;;;;3.52;2.43;;;;;;;21.80;69.95;100544.66;;;;-49
2021/08/18 13:13:06;;;;;;;5.33;2.39;;;;;;;21.80;70.04;100546.52;;;;-54
2021/08/18 13:16:06;;;;;;;4.23;2.51;;;;;;;21.80;70.08;100550.69;;;;-60
2021/08/18 13:19:06;;;;;;;7.22;2.59;;;;;;;21.82;70.00;100543.35;;;;-57
2021/08/18 13:22:06;;;;;;;4.77;2.46;;;;;;;21.82;70.06;100543.35;;;;-61
2021/08/18 13:25:07;;;;;;;5.51;2.56;;;;;;;21.83;70.02;100544.40;;;;-51
2021/08/18 13:28:06;;;;;;;4.97;2.33;;;;;;;21.82;70.08;100546.20;;;;-51
2021/08/18 13:31:06;;;;;;;7.56;2.49;;;;;;;21.83;70.04;100546.11;;;;-51
2021/08/18 13:34:06;;;;;;;3.71;2.33;;;;;;;21.84;69.98;100542.28;;;;-59
2021/08/18 13:37:06;;;;;;;4.96;2.35;;;;;;;21.84;69.98;100532.74;;;;-61
2021/08/18 13:40:06;;;;;;;4.53;2.32;;;;;;;21.85;69.96;100531.34;;;;-61
2021/08/18 13:43:06;;;;;;;3.29;2.43;;;;;;;21.85;69.98;100530.93;;;;-61
2021/08/18 13:46:06;;;;;;;5.14;2.16;;;;;;;21.85;69.96;100524.27;;;;-59
2021/08/18 13:49:06;;;;;;;3.25;2.21;;;;;;;21.86;69.92;100530.38;;;;-57
2021/08/18 13:52:06;;;;;;;4.19;2.28;;;;;;;21.86;69.98;100531.91;;;;-63
2021/08/18 13:55:06;;;;;;;4.61;2.26;;;;;;;21.86;69.87;100528.00;;;;-62
2021/08/18 13:58:06;;;;;;;5.87;2.46;;;;;;;21.85;69.87;100522.14;;;;-62
2021/08/18 14:01:06;;;;;;;5.39;2.15;;;;;;;21.84;69.85;100519.84;;;;-66
2021/08/18 14:04:06;;;;;;;4.63;2.39;;;;;;;21.84;69.79;100515.92;;;;-61
2021/08/18 14:07:06;;;;;;;4.27;2.35;;;;;;;21.84;69.79;100517.64;;;;-66
2021/08/18 14:10:06;;;;;;;2.63;2.02;;;;;;;21.83;69.76;100520.84;;;;-67
2021/08/18 14:13:06;;;;;;;4.93;2.15;;;;;;;21.83;69.78;100524.98;;;;-67
2021/08/18 14:16:06;;;;;;;4.88;2.35;;;;;;;21.83;69.76;100516.17;;;;-52
2021/08/18 14:19:06;;;;;;;3.11;2.29;;;;;;;21.82;69.73;100515.29;;;;-65
2021/08/18 14:22:06;;;;;;;5.05;2.26;;;;;;;21.82;69.80;100508.03;;;;-50
2021/08/18 14:25:06;;;;;;;4.38;2.11;;;;;;;21.82;69.83;100510.39;;;;-56
2021/08/18 14:28:06;;;;;;;4.06;1.99;;;;;;;21.83;69.90;100507.78;;;;-57
2021/08/18 14:31:06;;;;;;;3.59;2.15;;;;;;;21.84;70.04;100505.09;;;;-58
2021/08/18 14:34:06;;;;;;;2.90;2.00;;;;;;;21.85;70.04;100501.81;;;;-59
2021/08/18 14:37:06;;;;;;;4.33;2.26;;;;;;;21.85;70.09;100503.44;;;;-57
2021/08/18 14:40:06;;;;;;;3.70;2.01;;;;;;;21.85;70.13;100499.88;;;;-59
2021/08/18 14:43:06;;;;;;;3.06;2.19;;;;;;;21.87;70.12;100501.87;;;;-58
2021/08/18 14:46:06;;;;;;;2.67;2.12;;;;;;;21.87;70.13;100504.25;;;;-60
2021/08/18 14:49:06;;;;;;;3.57;2.36;;;;;;;21.86;70.04;100504.75;;;;-47
2021/08/18 14:52:06;;;;;;;3.57;2.22;;;;;;;21.87;70.03;100504.59;;;;-54
2021/08/18 14:55:06;;;;;;;4.29;2.24;;;;;;;21.88;70.10;100508.73;;;;-53
2021/08/18 14:58:06;;;;;;;3.66;1.98;;;;;;;21.88;70.08;100504.66;;;;-55
2021/08/18 15:01:06;;;;;;;4.35;2.17;;;;;;;21.88;70.12;100507.76;;;;-57
2021/08/18 15:04:06;;;;;;;3.38;2.21;;;;;;;21.89;70.17;100501.96;;;;-52
2021/08/18 15:07:06;;;;;;;2.65;1.97;;;;;;;21.90;70.15;100501.16;;;;-48
2021/08/18 15:10:06;;;;;;;4.00;2.16;;;;;;;21.90;70.22;100501.56;;;;-51
2021/08/18 15:13:06;;;;;;;4.65;2.09;;;;;;;21.91;70.23;100503.59;;;;-51
2021/08/18 15:16:06;;;;;;;6.89;1.99;;;;;;;21.90;69.94;100499.03;;;;-52
2021/08/18 15:19:06;;;;;;;5.37;2.08;;;;;;;21.91;70.28;100501.95;;;;-54
2021/08/18 15:22:06;;;;;;;3.80;1.92;;;;;;;21.93;70.48;100501.53;;;;-45
2021/08/18 15:25:06;;;;;;;3.85;2.15;;;;;;;21.95;70.50;100501.45;;;;-61
2021/08/18 15:28:06;;;;;;;9.07;2.37;;;;;;;21.96;70.58;100498.94;;;;-55
2021/08/18 15:31:06;;;;;;;5.98;2.10;;;;;;;21.96;70.69;100497.13;;;;-58
2021/08/18 15:34:06;;;;;;;5.44;2.01;;;;;;;21.97;70.81;100499.48;;;;-58
2021/08/18 15:37:06;;;;;;;3.83;2.11;;;;;;;21.99;70.72;100497.34;;;;-47
2021/08/18 15:40:06;;;;;;;6.47;1.93;;;;;;;22.00;70.69;100493.78;;;;-52
2021/08/18 15:43:06;;;;;;;2.99;1.85;;;;;;;22.00;70.36;100493.54;;;;-51
2021/08/18 15:46:06;;;;;;;6.73;2.09;;;;;;;22.01;70.62;100492.38;;;;-65
2021/08/18 15:49:06;;;;;;;6.19;1.93;;;;;;;22.01;70.70;100497.67;;;;-58
2021/08/18 15:52:06;;;;;;;7.56;2.04;;;;;;;22.01;70.65;100494.66;;;;-58
2021/08/18 15:55:06;;;;;;;5.74;2.12;;;;;;;22.01;70.61;100491.47;;;;-49
2021/08/18 15:58:06;;;;;;;3.25;1.93;;;;;;;22.01;70.61;100489.44;;;;-49
2021/08/18 16:01:06;;;;;;;4.65;2.05;;;;;;;22.01;70.57;100487.72;;;;-52
2021/08/18 16:04:06;;;;;;;4.89;1.93;;;;;;;22.01;70.56;100487.31;;;;-51
2021/08/18 16:07:06;;;;;;;4.50;1.99;;;;;;;22.01;70.55;100484.87;;;;-51
2021/08/18 16:10:06;;;;;;;3.51;1.83;;;;;;;22.01;70.54;100478.50;;;;-54
2021/08/18 16:13:06;;;;;;;4.25;1.90;;;;;;;22.02;70.53;100477.59;;;;-53
2021/08/18 16:16:06;;;;;;;3.56;1.84;;;;;;;22.02;70.49;100472.16;;;;-53
2021/08/18 16:19:06;;;;;;;3.69;1.85;;;;;;;22.02;70.52;100474.42;;;;-51
2021/08/18 16:22:06;;;;;;;5.56;1.72;;;;;;;22.02;70.53;100471.16;;;;-59
2021/08/18 16:25:06;;;;;;;3.91;1.93;;;;;;;22.02;70.59;100465.28;;;;-50
2021/08/18 16:28:06;;;;;;;2.85;1.82;;;;;;;22.03;70.52;100467.00;;;;-50
2021/08/18 16:31:07;;;;;;;4.61;1.80;;;;;;;22.03;70.53;100461.11;;;;-50
2021/08/18 16:34:06;;;;;;;2.99;1.84;;;;;;;22.03;70.51;100459.06;;;;-52
2021/08/18 16:37:06;;;;;;;5.55;5.09;;;;;;;22.03;70.50;100459.55;;;;-54
2021/08/18 16:40:06;;;;;;;2.17;1.71;;;;;;;22.03;70.53;100452.86;;;;-54